createdAt,value
2023-04-29T00:01:35.069Z,8.80
2023-04-29T00:04:25.094Z,6.80
2023-04-29T00:07:16.447Z,7.43
2023-04-29T00:10:09.204Z,9.17
2023-04-29T00:12:58.714Z,7.70
2023-04-29T00:15:48.364Z,9.43
2023-04-29T00:18:38.332Z,9.47
2023-04-29T00:21:28.492Z,10.60
2023-04-29T00:24:18.447Z,10.67
2023-04-29T00:27:09.444Z,7.97
2023-04-29T00:29:59.701Z,9.77
2023-04-29T00:32:50.235Z,8.00
2023-04-29T00:35:40.050Z,7.40
2023-04-29T00:38:29.989Z,7.33
2023-04-29T00:41:20.730Z,11.43
2023-04-29T00:44:12.030Z,13.27
2023-04-29T00:47:01.808Z,12.30
2023-04-29T00:49:51.689Z,12.20
2023-04-29T00:52:41.865Z,11.53
2023-04-29T00:55:33.224Z,10.57
2023-04-29T00:58:23.749Z,11.17
2023-04-29T01:01:15.315Z,11.57
2023-04-29T01:04:07.090Z,9.33
2023-04-29T01:07:06.701Z,9.67
2023-04-29T01:10:05.131Z,10.57
2023-04-29T01:13:03.005Z,10.93
2023-04-29T01:16:02.965Z,11.00
2023-04-29T01:18:59.975Z,12.23
2023-04-29T01:21:50.429Z,12.03
2023-04-29T01:24:41.866Z,10.60
2023-04-29T01:27:34.473Z,12.93
2023-04-29T01:30:33.463Z,11.90
2023-04-29T01:33:31.648Z,12.63
2023-04-29T01:36:31.035Z,9.70
2023-04-29T01:39:29.661Z,11.30
2023-04-29T01:42:27.891Z,14.27
2023-04-29T01:45:19.804Z,10.03
2023-04-29T01:48:10.029Z,10.93
2023-04-29T01:50:59.943Z,9.57
2023-04-29T01:53:49.758Z,10.50
2023-04-29T01:56:39.390Z,8.83
2023-04-29T01:59:31.453Z,11.10
2023-04-29T02:02:24.432Z,10.83
2023-04-29T02:05:13.954Z,11.83
2023-04-29T02:08:04.050Z,9.83
2023-04-29T02:13:30.969Z,10.23
2023-04-29T02:16:22.188Z,8.47
2023-04-29T02:19:11.861Z,10.63
2023-04-29T02:22:01.485Z,8.57
2023-04-29T02:24:51.085Z,10.23
2023-04-29T02:27:40.706Z,9.00
2023-04-29T02:30:30.938Z,9.07
2023-04-29T02:33:22.056Z,8.63
2023-04-29T02:36:11.748Z,10.23
2023-04-29T02:39:01.768Z,10.30
2023-04-29T02:41:51.312Z,11.03
2023-04-29T02:44:41.910Z,10.53
2023-04-29T02:47:31.873Z,11.30
2023-04-29T02:50:23.257Z,10.10
2023-04-29T02:53:13.001Z,9.03
2023-04-29T02:56:02.557Z,9.47
2023-04-29T02:58:52.428Z,12.03
2023-04-29T03:01:41.856Z,11.77
2023-04-29T03:04:31.818Z,9.60
2023-04-29T03:07:23.093Z,8.67
2023-04-29T03:10:13.719Z,11.13
2023-04-29T03:13:03.180Z,9.00
2023-04-29T03:15:52.722Z,10.17
2023-04-29T03:18:42.500Z,10.77
2023-04-29T03:21:31.967Z,8.57
2023-04-29T03:24:23.325Z,11.97
2023-04-29T03:27:12.849Z,8.93
2023-04-29T03:30:02.726Z,10.47
2023-04-29T03:32:52.249Z,9.27
2023-04-29T03:35:41.684Z,8.30
2023-04-29T03:38:31.225Z,7.73
2023-04-29T03:41:23.528Z,8.80
2023-04-29T03:44:12.849Z,6.87
2023-04-29T03:47:02.325Z,5.93
2023-04-29T03:49:52.076Z,8.53
2023-04-29T03:52:41.773Z,8.63
2023-04-29T03:55:31.752Z,7.50
2023-04-29T03:58:24.321Z,5.93
2023-04-29T04:01:13.745Z,6.03
2023-04-29T04:04:03.713Z,9.33
2023-04-29T04:06:53.273Z,7.70
2023-04-29T04:09:43.344Z,6.63
2023-04-29T04:12:33.097Z,7.50
2023-04-29T04:15:24.718Z,6.03
2023-04-29T04:18:14.534Z,6.83
2023-04-29T04:21:08.261Z,5.47
2023-04-29T04:23:57.821Z,5.87
2023-04-29T04:26:47.511Z,5.80
2023-04-29T04:29:36.923Z,8.23
2023-04-29T04:32:28.530Z,7.70
2023-04-29T04:35:18.343Z,5.50
2023-04-29T04:38:08.585Z,6.10
2023-04-29T04:40:58.088Z,6.90
2023-04-29T04:43:48.071Z,5.73
2023-04-29T04:46:37.946Z,6.07
2023-04-29T04:49:29.652Z,7.17
2023-04-29T04:52:26.156Z,7.27
2023-04-29T04:55:16.467Z,12.13
2023-04-29T04:58:06.050Z,7.43
2023-04-29T05:00:56.125Z,6.47
2023-04-29T05:03:46.041Z,9.17
2023-04-29T05:06:37.924Z,7.93
2023-04-29T05:09:27.555Z,8.60
2023-04-29T05:12:17.286Z,10.83
2023-04-29T05:15:08.750Z,7.33
2023-04-29T05:17:58.252Z,7.93
2023-04-29T05:20:47.870Z,10.27
2023-04-29T05:23:38.873Z,6.90
2023-04-29T05:26:28.325Z,7.83
2023-04-29T05:29:18.182Z,6.40
2023-04-29T05:32:08.034Z,7.90
2023-04-29T05:34:57.574Z,7.83
2023-04-29T05:37:47.102Z,6.53
2023-04-29T05:40:38.627Z,7.97
2023-04-29T05:43:28.140Z,6.57
2023-04-29T05:46:18.409Z,8.63
2023-04-29T05:49:08.041Z,6.40
2023-04-29T05:51:57.660Z,7.07
2023-04-29T05:54:47.199Z,7.70
2023-04-29T05:57:38.327Z,6.33
2023-04-29T06:00:28.150Z,7.47
2023-04-29T06:03:18.721Z,6.70
2023-04-29T06:06:08.575Z,10.43
2023-04-29T06:08:58.064Z,9.20
2023-04-29T06:11:49.483Z,6.77
2023-04-29T06:14:40.726Z,7.30
2023-04-29T06:17:30.414Z,5.63
2023-04-29T06:20:20.100Z,8.40
2023-04-29T06:23:09.637Z,8.07
2023-04-29T06:25:59.398Z,8.57
2023-04-29T06:28:49.067Z,6.07
2023-04-29T06:31:40.358Z,9.20
2023-04-29T06:34:30.100Z,6.37
2023-04-29T06:37:19.818Z,6.73
2023-04-29T06:40:10.621Z,6.10
2023-04-29T06:42:59.865Z,5.80
2023-04-29T06:45:49.508Z,7.77
2023-04-29T06:48:40.504Z,6.83
2023-04-29T06:51:30.265Z,6.83
2023-04-29T06:54:20.226Z,6.40
2023-04-29T06:57:09.909Z,5.17
2023-04-29T06:59:59.462Z,5.03
2023-04-29T07:02:49.267Z,5.67
2023-04-29T07:05:42.175Z,5.67
2023-04-29T07:08:35.127Z,5.50
2023-04-29T07:11:25.132Z,5.43
2023-04-29T07:14:14.851Z,6.67
2023-04-29T07:17:04.561Z,6.93
2023-04-29T07:19:54.840Z,4.63
2023-04-29T07:22:46.316Z,5.37
2023-04-29T07:25:37.088Z,6.17
2023-04-29T07:28:27.073Z,5.23
2023-04-29T07:31:16.917Z,4.93
2023-04-29T07:34:06.553Z,6.67
2023-04-29T07:36:56.658Z,5.90
2023-04-29T07:39:48.510Z,6.30
2023-04-29T07:42:38.091Z,5.07
2023-04-29T07:45:27.647Z,3.97
2023-04-29T07:48:17.423Z,6.40
2023-04-29T07:51:07.282Z,4.93
2023-04-29T07:53:56.827Z,7.00
2023-04-29T07:56:47.813Z,5.97
2023-04-29T07:59:37.259Z,35.30
2023-04-29T08:02:27.161Z,8.23
2023-04-29T08:05:17.285Z,5.13
2023-04-29T08:08:07.765Z,4.37
2023-04-29T08:10:57.508Z,5.07
2023-04-29T08:13:48.940Z,5.10
2023-04-29T08:16:42.022Z,4.67
2023-04-29T08:19:31.868Z,5.37
2023-04-29T08:22:23.156Z,6.20
2023-04-29T08:25:13.922Z,5.53
2023-04-29T08:28:03.555Z,5.40
2023-04-29T08:30:54.586Z,6.43
2023-04-29T08:33:44.225Z,8.00
2023-04-29T08:36:34.596Z,9.70
2023-04-29T08:39:24.143Z,10.00
2023-04-29T08:42:14.129Z,21.03
2023-04-29T08:45:04.306Z,6.87
2023-04-29T08:47:58.684Z,8.80
2023-04-29T08:50:48.683Z,74.40
2023-04-29T08:53:38.410Z,37.13
2023-04-29T08:56:29.345Z,14.27
2023-04-29T08:59:20.825Z,6.20
2023-04-29T09:02:15.450Z,6.17
2023-04-29T09:05:11.662Z,6.97
2023-04-29T09:08:03.655Z,6.13
2023-04-29T09:10:53.841Z,5.13
2023-04-29T09:13:43.653Z,5.53
2023-04-29T09:16:33.401Z,4.77
2023-04-29T09:19:34.024Z,6.40
2023-04-29T09:22:25.475Z,4.80
2023-04-29T09:25:15.547Z,8.23
2023-04-29T09:28:18.198Z,19.67
2023-04-29T09:31:09.137Z,7.00
2023-04-29T09:33:59.965Z,6.57
2023-04-29T09:36:51.135Z,6.37
2023-04-29T09:39:42.489Z,7.93
2023-04-29T09:42:32.687Z,5.27
2023-04-29T09:45:38.805Z,4.17
2023-04-29T09:48:34.773Z,5.30
2023-04-29T09:51:24.526Z,5.57
2023-04-29T09:54:23.593Z,13.03
2023-04-29T09:57:16.270Z,9.37
2023-04-29T10:00:06.104Z,7.97
2023-04-29T10:03:00.577Z,6.13
2023-04-29T10:05:50.473Z,5.57
2023-04-29T10:08:42.372Z,5.63
2023-04-29T10:11:32.363Z,6.30
2023-04-29T10:14:25.194Z,5.23
2023-04-29T10:17:26.940Z,7.20
2023-04-29T10:20:23.291Z,5.00
2023-04-29T10:23:15.274Z,6.33
2023-04-29T10:26:05.328Z,4.83
2023-04-29T10:28:57.660Z,5.60
2023-04-29T10:31:50.541Z,4.97
2023-04-29T10:34:40.923Z,5.00
2023-04-29T10:37:32.063Z,5.13
2023-04-29T10:40:26.828Z,4.90
2023-04-29T10:43:17.761Z,7.77
2023-04-29T10:46:27.266Z,7.13
2023-04-29T10:49:18.480Z,4.53
2023-04-29T10:52:08.227Z,7.83
2023-04-29T10:55:05.755Z,5.20
2023-04-29T10:57:56.977Z,6.27
2023-04-29T11:00:46.391Z,5.87
2023-04-29T11:03:59.143Z,6.80
2023-04-29T11:06:54.481Z,5.60
2023-04-29T11:09:44.125Z,5.83
2023-04-29T11:12:33.739Z,4.67
2023-04-29T11:15:23.358Z,5.90
2023-04-29T11:18:15.850Z,5.73
2023-04-29T11:21:15.586Z,6.23
2023-04-29T11:24:07.995Z,5.60
2023-04-29T11:27:04.794Z,7.93
2023-04-29T11:29:59.051Z,5.03
2023-04-29T11:32:50.858Z,7.70
2023-04-29T11:35:42.151Z,6.37
2023-04-29T11:38:33.008Z,6.80
2023-04-29T11:41:24.988Z,5.57
2023-04-29T11:44:15.178Z,5.97
2023-04-29T11:47:05.470Z,5.63
2023-04-29T11:49:55.249Z,6.90
2023-04-29T11:52:45.170Z,3.83
2023-04-29T11:55:34.891Z,5.03
2023-04-29T11:58:27.689Z,5.97
2023-04-29T12:01:17.396Z,6.00
2023-04-29T12:04:07.848Z,4.93
2023-04-29T12:07:00.393Z,5.33
2023-04-29T12:09:50.046Z,5.60
2023-04-29T12:12:41.216Z,5.77
2023-04-29T12:15:33.276Z,4.43
2023-04-29T12:18:28.880Z,6.80
2023-04-29T12:21:19.049Z,7.73
2023-04-29T12:24:08.833Z,6.87
2023-04-29T12:27:02.795Z,7.33
2023-04-29T12:29:54.466Z,5.10
2023-04-29T12:32:49.383Z,7.70
2023-04-29T12:35:39.863Z,8.00
2023-04-29T12:38:30.393Z,7.70
2023-04-29T12:41:22.106Z,5.03
2023-04-29T12:44:12.390Z,6.63
2023-04-29T12:47:11.162Z,5.17
2023-04-29T12:50:03.644Z,7.07
2023-04-29T12:52:53.273Z,6.30
2023-04-29T12:55:43.118Z,5.97
2023-04-29T12:58:33.285Z,4.83
2023-04-29T13:01:23.902Z,8.60
2023-04-29T13:04:13.692Z,5.47
2023-04-29T13:07:05.171Z,6.83
2023-04-29T13:09:55.652Z,8.23
2023-04-29T13:12:45.054Z,15.60
2023-04-29T13:15:35.045Z,7.40
2023-04-29T13:18:24.711Z,5.60
2023-04-29T13:21:14.230Z,6.47
2023-04-29T13:24:05.629Z,5.60
2023-04-29T13:26:55.056Z,6.17
2023-04-29T13:29:45.104Z,4.70
2023-04-29T13:32:43.961Z,5.47
2023-04-29T13:35:40.584Z,6.57
2023-04-29T13:38:30.630Z,5.80
2023-04-29T13:41:21.725Z,6.10
2023-04-29T13:44:23.594Z,6.13
2023-04-29T13:47:25.207Z,6.93
2023-04-29T13:50:40.169Z,6.33
2023-04-29T13:54:00.858Z,5.53
2023-04-29T13:59:51.720Z,8.53
2023-04-29T14:02:42.712Z,5.97
2023-04-29T14:05:32.403Z,6.47
2023-04-29T14:08:22.226Z,12.13
2023-04-29T14:11:11.970Z,6.17
2023-04-29T14:14:03.054Z,4.80
2023-04-29T14:16:52.690Z,7.30
2023-04-29T14:19:42.284Z,4.43
2023-04-29T14:22:32.024Z,6.97
2023-04-29T14:25:21.386Z,5.00
2023-04-29T14:28:11.891Z,7.07
2023-04-29T14:31:03.085Z,5.17
2023-04-29T14:33:53.974Z,5.80
2023-04-29T14:36:45.428Z,4.80
2023-04-29T14:39:37.252Z,5.20
2023-04-29T14:42:27.010Z,5.37
2023-04-29T14:45:17.596Z,8.60
2023-04-29T14:48:08.682Z,8.23
2023-04-29T14:50:58.314Z,5.50
2023-04-29T14:53:47.870Z,5.80
2023-04-29T14:56:38.556Z,7.63
2023-04-29T14:59:30.423Z,5.17
2023-04-29T15:02:20.554Z,4.97
2023-04-29T15:05:11.934Z,6.60
2023-04-29T15:08:02.705Z,4.23
2023-04-29T15:10:52.426Z,6.33
2023-04-29T15:13:44.534Z,5.30
2023-04-29T15:16:34.169Z,4.00
2023-04-29T15:19:30.632Z,4.77
2023-04-29T15:22:21.773Z,5.30
2023-04-29T15:25:11.872Z,5.37
2023-04-29T15:28:01.853Z,4.43
2023-04-29T15:30:51.214Z,6.60
2023-04-29T15:33:41.235Z,6.83
2023-04-29T15:36:32.520Z,3.83
2023-04-29T15:39:24.057Z,6.00
2023-04-29T15:42:13.721Z,4.17
2023-04-29T15:45:03.971Z,8.20
2023-04-29T15:47:53.586Z,7.27
2023-04-29T15:50:43.274Z,7.90
2023-04-29T15:53:32.956Z,4.87
2023-04-29T15:56:24.227Z,6.40
2023-04-29T15:59:14.446Z,9.77
2023-04-29T16:02:10.701Z,6.83
2023-04-29T16:05:00.755Z,7.10
2023-04-29T16:07:50.417Z,8.67
2023-04-29T16:10:40.036Z,6.43
2023-04-29T16:13:31.248Z,7.00
2023-04-29T16:16:20.810Z,7.50
2023-04-29T16:19:10.590Z,5.43
2023-04-29T16:22:00.513Z,7.83
2023-04-29T16:24:50.615Z,17.27
2023-04-29T16:27:40.333Z,5.20
2023-04-29T16:30:31.107Z,25.20
2023-04-29T16:33:20.871Z,6.43
2023-04-29T16:36:10.469Z,5.90
2023-04-29T16:39:00.510Z,8.83
2023-04-29T16:41:50.436Z,8.53
2023-04-29T16:44:39.945Z,12.13
2023-04-29T16:47:31.254Z,35.30
2023-04-29T16:50:21.352Z,22.17
2023-04-29T16:53:10.780Z,8.97
2023-04-29T16:56:00.450Z,5.97
2023-04-29T16:58:50.588Z,8.30
2023-04-29T17:01:40.623Z,6.23
2023-04-29T17:04:32.564Z,7.60
2023-04-29T17:07:22.411Z,7.53
2023-04-29T17:10:12.675Z,7.13
2023-04-29T17:13:02.477Z,8.33
2023-04-29T17:15:52.177Z,9.63
2023-04-29T17:18:42.353Z,31.60
2023-04-29T17:21:33.936Z,8.60
2023-04-29T17:24:25.130Z,5.93
2023-04-29T17:27:31.445Z,5.20
2023-04-29T17:30:21.380Z,6.83
2023-04-29T17:33:13.485Z,5.47
2023-04-29T17:36:04.264Z,12.17
2023-04-29T17:38:57.389Z,7.87
2023-04-29T17:41:47.967Z,5.20
2023-04-29T17:44:38.486Z,5.10
2023-04-29T17:47:28.567Z,7.03
2023-04-29T17:50:19.075Z,6.53
2023-04-29T17:53:09.552Z,5.53
2023-04-29T17:56:01.136Z,6.47
2023-04-29T17:58:51.149Z,4.10
2023-04-29T18:01:40.724Z,7.53
2023-04-29T18:04:31.025Z,7.17
2023-04-29T18:07:20.866Z,9.60
2023-04-29T18:10:12.150Z,7.83
2023-04-29T18:13:03.736Z,7.00
2023-04-29T18:15:53.609Z,5.83
2023-04-29T18:18:43.609Z,8.33
2023-04-29T18:21:34.227Z,8.50
2023-04-29T18:24:24.016Z,7.47
2023-04-29T18:27:13.855Z,4.63
2023-04-29T18:30:05.991Z,4.63
2023-04-29T18:32:55.534Z,5.63
2023-04-29T18:35:46.487Z,6.53
2023-04-29T18:38:36.290Z,8.10
2023-04-29T18:41:25.864Z,10.97
2023-04-29T18:44:16.504Z,14.77
2023-04-29T18:47:07.952Z,15.53
2023-04-29T18:49:58.801Z,14.83
2023-04-29T18:52:48.467Z,10.67
2023-04-29T18:55:38.614Z,8.83
2023-04-29T18:58:28.973Z,6.13
2023-04-29T19:01:19.156Z,8.40
2023-04-29T19:04:10.986Z,7.07
2023-04-29T19:07:02.986Z,7.33
2023-04-29T19:09:53.028Z,8.00
2023-04-29T19:12:43.380Z,8.73
2023-04-29T19:15:34.178Z,8.20
2023-04-29T19:18:25.091Z,11.17
2023-04-29T19:21:21.289Z,4.63
2023-04-29T19:24:11.121Z,10.13
2023-04-29T19:27:04.364Z,19.27
2023-04-29T19:29:55.072Z,13.80
2023-04-29T19:32:47.626Z,10.40
2023-04-29T19:35:37.928Z,6.03
2023-04-29T19:38:29.861Z,6.70
2023-04-29T19:41:22.647Z,10.23
2023-04-29T19:44:12.855Z,22.77
2023-04-29T19:47:02.895Z,9.60
2023-04-29T19:49:53.320Z,8.83
2023-04-29T19:52:43.036Z,5.60
2023-04-29T19:55:34.938Z,7.60
2023-04-29T19:58:24.948Z,15.23
2023-04-29T20:01:14.867Z,10.83
2023-04-29T20:04:04.794Z,13.00
2023-04-29T20:06:54.935Z,9.33
2023-04-29T20:09:46.418Z,25.17
2023-04-29T20:12:37.492Z,24.00
2023-04-29T20:15:27.548Z,16.50
2023-04-29T20:18:18.393Z,19.10
2023-04-29T20:21:08.589Z,24.23
2023-04-29T20:24:00.142Z,29.83
2023-04-29T20:26:49.848Z,36.13
2023-04-29T20:29:44.664Z,8.07
2023-04-29T20:32:36.245Z,7.37
2023-04-29T20:35:26.187Z,7.80
2023-04-29T20:38:15.871Z,5.80
2023-04-29T20:41:06.751Z,9.77
2023-04-29T20:43:56.328Z,35.50
2023-04-29T20:46:47.390Z,10.57
2023-04-29T20:49:37.227Z,37.83
2023-04-29T20:52:27.980Z,19.30
2023-04-29T20:55:18.086Z,11.30
2023-04-29T20:58:07.728Z,7.87
2023-04-29T21:00:57.200Z,11.20
2023-04-29T21:03:48.130Z,79.47
2023-04-29T21:06:38.277Z,42.37
2023-04-29T21:09:28.136Z,130.13
2023-04-29T21:12:17.671Z,176.20
2023-04-29T21:15:08.384Z,27.07
2023-04-29T21:17:58.156Z,36.20
2023-04-29T21:20:49.313Z,78.93
2023-04-29T21:23:38.915Z,14.53
2023-04-29T21:26:28.407Z,107.37
2023-04-29T21:29:17.932Z,98.70
2023-04-29T21:32:07.952Z,56.23
2023-04-29T21:34:58.014Z,74.27
2023-04-29T21:37:49.485Z,199.17
2023-04-29T21:40:42.998Z,10.03
2023-04-29T21:43:33.227Z,287.10
2023-04-29T21:46:23.183Z,55.53
2023-04-29T21:49:13.065Z,9.53
2023-04-29T21:52:03.630Z,67.27
2023-04-29T21:54:55.208Z,97.20
2023-04-29T21:57:45.744Z,399.73
2023-04-29T22:00:36.882Z,148.00
2023-04-29T22:03:26.594Z,166.90
2023-04-29T22:06:16.155Z,35.77
2023-04-29T22:09:06.896Z,85.57
2023-04-29T22:11:57.904Z,388.27
2023-04-29T22:14:47.968Z,59.80
2023-04-29T22:17:37.575Z,13.23
2023-04-29T22:20:27.863Z,27.77
2023-04-29T22:23:17.584Z,153.30
2023-04-29T22:26:07.263Z,428.13
2023-04-29T22:28:58.315Z,425.37
2023-04-29T22:31:47.955Z,419.20
2023-04-29T22:34:37.680Z,300.43
2023-04-29T22:37:27.628Z,41.97
2023-04-29T22:40:17.121Z,13.70
2023-04-29T22:43:06.612Z,230.57
2023-04-29T22:45:58.659Z,27.93
2023-04-29T22:49:44.613Z,31.93
2023-04-29T22:52:34.515Z,8.63
2023-04-29T22:55:24.132Z,7.60
2023-04-29T22:58:16.329Z,14.60
2023-04-29T23:01:09.336Z,10.13
2023-04-29T23:04:00.553Z,9.37
2023-04-29T23:06:50.035Z,9.03
2023-04-29T23:09:39.805Z,29.17
2023-04-29T23:12:30.765Z,9.57
2023-04-29T23:15:20.357Z,28.40
2023-04-29T23:18:11.585Z,6.60
2023-04-29T23:21:01.143Z,38.13
2023-04-29T23:23:50.666Z,23.63
2023-04-29T23:26:40.187Z,16.17
2023-04-29T23:29:30.045Z,24.40
2023-04-29T23:32:19.857Z,23.67
2023-04-29T23:35:13.586Z,4.63
2023-04-29T23:38:03.145Z,7.00
2023-04-29T23:40:52.745Z,6.67
2023-04-29T23:43:42.361Z,6.03
2023-04-29T23:46:32.149Z,6.97
2023-04-29T23:49:21.726Z,8.80
2023-04-29T23:52:12.817Z,6.17
2023-04-29T23:55:03.293Z,5.23
2023-04-29T23:57:53.099Z,7.90
